EDGS

Siegerland Airport

Germany
METAR EDGS 241850Z 08008KT 1800 BR SCT001 OVC002 14/14 Q1019
Observed Flight Rules
May-24 @ 18:50 UTC (11 hours ago) Instrument Flight Rules
Wind Visibility Clouds Conditions
80° at 8 knots 1,802 meters
  • Scattered at 100' AGL
  • Overcast at 200' AGL
  • Mist
Temperatures Readings
Current 14°C / 57°F
Dewpoint 14°C / 57°F
Humidity 100%
Altimeter 30.09" Hg
Pressure 1019 hPa
Elevation 602
METAR EDGS 241850Z 08008KT 1800 BR SCT001 OVC002 14/14 Q1019
Observed Flight Rules
May-24 @ 18:50 UTC
(11 hours ago)
LIFR
Wind Visibility
80° at 8 knots 1,802 meters
Clouds
  • Scattered at 100' AGL
  • Overcast at 200' AGL
Conditions
  • Mist
Temperature Dewpoint
14°C / 57°F 14°C / 57°F
Humidity Altimeter Pressure
100% 30.09" Hg 1019 hPa